Time;durP1;ratioP1;P1;durP2;ratioP2;P2;SDS_P1;SDS_P2;PMS_P1;PMS_P2;Temp;Humidity;BMP_temperature;BMP_pressure;BME280_temperature;BME280_humidity;BME280_pressure;Samples;Min_cycle;Max_cycle;Signal;HPM_P1;HPM_P2
2021/07/28 00:01:03;;;;;;;19.63;13.73;;;;;;;22.43;70.95;99402.70;129823;1093;23060;-67
2021/07/28 00:03:32;;;;;;;22.70;13.25;;;;;;;22.41;70.85;99405.00;129673;1093;113797;-67
2021/07/28 00:06:01;;;;;;;21.68;13.65;;;;;;;22.41;70.65;99406.97;129797;1093;23426;-67
2021/07/28 00:08:30;;;;;;;27.40;13.68;;;;;;;22.40;70.68;99406.16;129679;1092;113971;-67
2021/07/28 00:10:58;;;;;;;20.63;13.15;;;;;;;22.40;70.60;99400.59;129803;1093;22562;-67
2021/07/28 00:13:27;;;;;;;19.18;12.45;;;;;;;22.40;70.51;99395.05;129689;1093;114058;-67
2021/07/28 00:15:56;;;;;;;19.55;13.68;;;;;;;22.40;70.29;99372.02;129774;1092;22562;-67
2021/07/28 00:18:42;;;;;;;19.75;13.78;;;;;;;22.36;70.15;99365.55;129847;1093;23629;-67
2021/07/28 00:23:58;;;;;;;18.73;13.28;;;;;;;22.38;70.61;99372.36;129789;1093;22569;-67
2021/07/28 00:26:30;;;;;;;17.25;13.93;;;;;;;22.39;70.94;99382.31;129698;1093;113966;-67
2021/07/28 00:28:59;;;;;;;22.73;13.08;;;;;;;22.39;70.95;99379.54;129818;1092;22523;-67
2021/07/28 00:31:27;;;;;;;19.88;12.53;;;;;;;22.40;71.01;99383.95;129683;1092;114056;-66
2021/07/28 00:33:57;;;;;;;20.18;13.30;;;;;;;22.41;70.76;99393.08;129801;1092;22577;-67
2021/07/28 00:36:27;;;;;;;21.28;12.53;;;;;;;22.43;70.79;99399.11;129783;1092;22685;-67
2021/07/28 00:38:56;;;;;;;19.80;13.00;;;;;;;22.44;70.81;99401.55;129699;1093;114359;-67
2021/07/28 00:41:24;;;;;;;17.05;14.03;;;;;;;22.46;71.10;99392.89;129807;1093;22556;-67
2021/07/28 00:43:53;;;;;;;18.75;12.85;;;;;;;22.46;71.34;99390.11;129757;1092;114182;-67
2021/07/28 00:46:22;;;;;;;17.50;12.43;;;;;;;22.46;71.09;99392.89;129801;1093;22569;-67
2021/07/28 00:48:51;;;;;;;20.30;13.63;;;;;;;22.43;70.92;99374.94;129835;1093;23150;-67
2021/07/28 00:51:20;;;;;;;22.10;13.15;;;;;;;22.41;70.79;99379.20;129695;1093;114919;-67
2021/07/28 00:53:49;;;;;;;15.90;13.25;;;;;;;22.40;70.98;99377.58;129763;1092;23645;-67
2021/07/28 00:56:18;;;;;;;23.40;13.55;;;;;;;22.38;70.88;99363.22;129700;1093;114251;-67
2021/07/28 00:58:47;;;;;;;18.18;13.18;;;;;;;22.35;70.79;99361.15;129806;1093;22548;-67
2021/07/28 01:01:17;;;;;;;18.53;12.88;;;;;;;22.32;70.79;99361.82;129671;1093;114423;-66
2021/07/28 01:03:46;;;;;;;21.10;12.38;;;;;;;22.31;70.73;99365.75;129803;1092;22603;-67
2021/07/28 01:06:15;;;;;;;18.15;12.65;;;;;;;22.31;70.89;99366.56;129808;1093;22540;-67
2021/07/28 01:08:44;;;;;;;22.25;12.00;;;;;;;22.31;71.07;99369.33;129691;1093;114174;-67
2021/07/28 01:11:22;;;;;;;18.70;12.53;;;;;;;22.32;71.52;99375.70;129801;1092;22577;-67
2021/07/28 01:13:51;;;;;;;19.73;12.95;;;;;;;22.30;71.49;99378.81;129684;1093;114891;-67
2021/07/28 01:16:20;;;;;;;21.48;13.55;;;;;;;22.29;71.71;99366.08;129818;1093;22601;-67
2021/07/28 01:18:50;;;;;;;17.58;13.00;;;;;;;22.23;71.38;99350.77;129727;1093;23742;-67
2021/07/28 01:21:20;;;;;;;19.93;13.20;;;;;;;22.25;71.61;99370.68;129658;1093;114132;-67
2021/07/28 01:23:49;;;;;;;19.33;12.48;;;;;;;22.21;71.84;99376.12;129725;1095;22766;-67
2021/07/28 01:26:18;;;;;;;19.90;13.33;;;;;;;22.19;71.92;99367.31;129660;1095;114197;-67
2021/07/28 01:28:47;;;;;;;22.83;13.15;;;;;;;22.16;72.07;99373.53;129726;1093;22533;-67
2021/07/28 01:31:17;;;;;;;15.13;13.20;;;;;;;22.11;72.50;99379.28;129614;1093;115235;-67
2021/07/28 01:33:46;;;;;;;18.70;13.73;;;;;;;22.06;72.51;99378.69;129754;1094;22599;-67
2021/07/28 01:36:19;;;;;;;19.48;13.05;;;;;;;22.03;72.56;99384.91;129763;1093;22562;-67
2021/07/28 01:38:49;;;;;;;20.23;13.75;;;;;;;21.99;72.65;99389.46;129626;1093;114521;-67
2021/07/28 01:41:20;;;;;;;20.85;14.80;;;;;;;21.96;72.61;99382.62;129741;1095;22691;-67
2021/07/28 01:43:49;;;;;;;27.83;13.73;;;;;;;21.95;72.64;99371.85;129654;1095;114579;-67
2021/07/28 01:46:18;;;;;;;20.58;13.23;;;;;;;21.93;72.56;99369.41;129727;1093;22542;-67
2021/07/28 01:48:47;;;;;;;18.98;13.45;;;;;;;21.93;72.49;99371.41;129731;1093;22545;-67
2021/07/28 01:51:16;;;;;;;20.38;12.68;;;;;;;21.92;72.39;99367.81;129692;1092;114962;-67
2021/07/28 01:53:45;;;;;;;25.50;13.35;;;;;;;21.92;72.36;99369.78;129782;1093;22628;-66
2021/07/28 01:56:15;;;;;;;21.77;12.65;;;;;;;21.90;72.45;99372.07;129685;1092;114144;-66
2021/07/28 01:58:53;;;;;;;19.63;13.35;;;;;;;21.89;72.64;99365.71;129838;1092;22506;-66
2021/07/28 02:01:22;;;;;;;23.78;12.38;;;;;;;21.87;72.62;99365.23;129685;1093;114227;-66
2021/07/28 02:03:51;;;;;;;23.38;14.00;;;;;;;21.85;72.64;99360.02;129824;1093;23175;-66
2021/07/28 02:06:20;;;;;;;17.50;12.58;;;;;;;21.84;72.97;99354.80;129794;1093;22689;-66
2021/07/28 02:08:50;;;;;;;15.75;11.68;;;;;;;21.82;73.04;99348.77;129672;1092;114380;-66
2021/07/28 02:11:19;;;;;;;16.63;12.88;;;;;;;21.79;73.25;99335.58;129815;1092;22550;-66
2021/07/28 02:13:48;;;;;;;22.73;13.40;;;;;;;21.75;73.81;99342.97;129639;1093;114505;-65
2021/07/28 02:16:17;;;;;;;16.40;12.93;;;;;;;21.73;73.91;99340.52;129793;1092;23039;-65
2021/07/28 02:18:46;;;;;;;16.88;12.85;;;;;;;21.72;74.30;99329.77;129798;1092;22545;-65
2021/07/28 02:21:15;;;;;;;20.10;12.78;;;;;;;21.67;74.34;99316.90;129671;1092;113972;-65
2021/07/28 02:23:44;;;;;;;18.95;13.55;;;;;;;21.59;74.56;99303.92;129826;1092;22601;-65
2021/07/28 02:26:13;;;;;;;26.87;20.40;;;;;;;21.49;75.15;99305.13;129676;1093;114111;-66
2021/07/28 02:28:42;;;;;;;24.10;15.90;;;;;;;21.43;75.38;99319.50;129796;1092;23218;-66
2021/07/28 02:31:11;;;;;;;25.90;17.75;;;;;;;21.42;75.53;99321.46;129706;1093;114269;-65
2021/07/28 02:33:40;;;;;;;21.58;15.13;;;;;;;21.42;75.72;99342.82;129820;1093;22537;-66
2021/07/28 02:36:09;;;;;;;18.38;12.70;;;;;;;21.43;75.81;99348.03;129788;1093;22675;-66
2021/07/28 02:38:38;;;;;;;18.85;13.53;;;;;;;21.44;75.63;99369.06;129702;1092;114119;-66
2021/07/28 02:41:07;;;;;;;21.77;14.38;;;;;;;21.45;75.64;99348.52;129823;1093;23232;-66
2021/07/28 02:43:37;;;;;;;21.63;14.45;;;;;;;21.44;75.54;99337.77;129664;1092;114311;-66
2021/07/28 02:46:06;;;;;;;20.78;13.73;;;;;;;21.41;75.70;99342.01;129780;1092;22574;-66
2021/07/28 02:48:35;;;;;;;20.68;14.75;;;;;;;21.41;75.57;99343.97;129796;1093;22524;-66
2021/07/28 02:51:04;;;;;;;22.85;14.98;;;;;;;21.37;75.83;99354.91;129677;1092;114532;-66
2021/07/28 02:53:33;;;;;;;20.78;15.38;;;;;;;21.34;76.17;99350.05;129828;1093;23118;-66
2021/07/28 02:56:02;;;;;;;20.52;14.20;;;;;;;21.33;76.33;99333.75;129720;1093;114328;-66
2021/07/28 02:58:32;;;;;;;24.88;15.00;;;;;;;21.30;76.42;99340.77;129823;1093;22528;-66
2021/07/28 03:01:01;;;;;;;25.35;16.10;;;;;;;21.28;76.63;99331.97;129804;1092;22567;-66
2021/07/28 03:03:31;;;;;;;20.00;14.20;;;;;;;21.27;76.86;99335.07;129717;1093;114437;-66
2021/07/28 03:06:02;;;;;;;20.55;14.93;;;;;;;21.24;77.12;99353.17;129792;1093;22598;-66
2021/07/28 03:08:30;;;;;;;24.50;14.95;;;;;;;21.25;77.24;99362.30;129698;1093;114923;-66
2021/07/28 03:11:04;;;;;;;19.30;15.45;;;;;;;21.25;77.31;99365.88;129810;1093;22603;-66
2021/07/28 03:13:33;;;;;;;24.48;15.15;;;;;;;21.26;77.22;99386.09;129690;1093;114609;-66
2021/07/28 03:16:07;;;;;;;20.13;14.28;;;;;;;21.27;77.43;99383.00;129808;1093;22574;-66
2021/07/28 03:18:35;;;;;;;23.73;13.90;;;;;;;21.30;77.04;99400.92;129834;1092;22533;-66
2021/07/28 03:21:05;;;;;;;26.55;14.75;;;;;;;21.33;77.16;99405.81;129670;1092;114187;-66
2021/07/28 03:23:34;;;;;;;30.20;15.78;;;;;;;21.37;77.03;99413.11;129781;1093;23294;-66
2021/07/28 03:26:03;;;;;;;25.25;15.20;;;;;;;21.40;76.86;99406.09;129739;1093;114137;-66
2021/07/28 03:28:32;;;;;;;20.00;14.30;;;;;;;21.44;76.69;99415.38;129781;1093;22578;-66
2021/07/28 03:31:01;;;;;;;28.00;13.50;;;;;;;21.47;76.49;99423.84;129813;1093;23469;-66
2021/07/28 03:33:30;;;;;;;22.90;13.50;;;;;;;21.51;76.29;99424.79;129723;1093;113895;-66
2021/07/28 03:35:59;;;;;;;18.83;12.70;;;;;;;21.56;76.28;99440.44;129765;1093;23426;-65
2021/07/28 03:38:28;;;;;;;17.35;12.48;;;;;;;21.58;76.12;99427.06;129657;1093;114159;-65
2021/07/28 03:40:57;;;;;;;17.85;13.18;;;;;;;21.62;75.88;99421.67;126196;1092;23565;-67
2021/07/28 03:43:26;;;;;;;21.20;13.45;;;;;;;21.65;75.60;99418.20;124977;1093;114540;-66
2021/07/28 03:45:55;;;;;;;18.40;13.40;;;;;;;21.66;75.47;99409.55;129770;1091;23411;-66
2021/07/28 03:48:29;;;;;;;18.13;13.25;;;;;;;21.67;75.37;99405.63;129777;1093;22578;-66
2021/07/28 03:50:59;;;;;;;24.10;14.68;;;;;;;21.67;75.29;99413.14;129686;1093;114249;-66
2021/07/28 03:53:28;;;;;;;19.48;13.10;;;;;;;21.66;75.16;99406.78;129783;1093;22554;-66
2021/07/28 03:55:57;;;;;;;20.03;14.05;;;;;;;21.68;74.95;99411.99;129725;1093;114562;-66
2021/07/28 03:58:25;;;;;;;22.73;12.88;;;;;;;21.71;74.73;99408.56;129769;1093;22596;-66
2021/07/28 04:00:54;;;;;;;19.58;12.55;;;;;;;21.73;75.11;99393.22;129800;1092;23402;-66
2021/07/28 04:03:23;;;;;;;24.35;13.48;;;;;;;21.72;75.03;99394.36;129703;1093;114558;-66
2021/07/28 04:05:54;;;;;;;20.75;12.75;;;;;;;21.70;75.09;99393.88;129775;1092;22586;-66
2021/07/28 04:08:23;;;;;;;23.08;12.95;;;;;;;21.66;75.17;99373.50;129678;1093;114156;-66
2021/07/28 04:10:53;;;;;;;21.58;12.63;;;;;;;21.66;75.23;99375.46;129799;1093;22534;-66
2021/07/28 04:13:28;;;;;;;18.35;12.55;;;;;;;21.66;75.14;99373.50;129693;1091;114351;-66
2021/07/28 04:15:57;;;;;;;19.53;12.63;;;;;;;21.69;75.11;99396.98;129813;1092;22587;-66
2021/07/28 04:18:26;;;;;;;18.23;12.40;;;;;;;21.72;75.07;99410.19;129863;1092;22579;-66
2021/07/28 04:20:55;;;;;;;22.15;12.93;;;;;;;21.74;74.76;99394.03;129731;1093;114423;-66
2021/07/28 04:23:23;;;;;;;16.88;11.58;;;;;;;21.76;74.68;99386.19;129818;1093;23445;-66
2021/07/28 04:25:52;;;;;;;20.03;12.98;;;;;;;21.77;74.60;99379.50;129684;1092;114713;-66
2021/07/28 04:28:21;;;;;;;18.68;12.50;;;;;;;21.76;74.53;99369.55;129775;1092;22565;-66
2021/07/28 04:30:50;;;;;;;19.38;12.23;;;;;;;21.76;74.32;99362.05;129794;1093;22586;-66
2021/07/28 04:33:21;;;;;;;21.25;12.48;;;;;;;21.78;74.32;99368.07;129690;1093;114208;-66
2021/07/28 04:35:50;;;;;;;21.77;12.93;;;;;;;21.81;74.18;99364.60;129766;1093;22595;-65
2021/07/28 04:38:18;;;;;;;15.78;12.23;;;;;;;21.86;74.07;99366.38;129705;1093;114614;-65
2021/07/28 04:40:50;;;;;;;20.23;12.68;;;;;;;21.89;74.14;99362.94;129827;1092;24318;-65
2021/07/28 04:43:19;;;;;;;16.55;11.85;;;;;;;21.93;74.27;99358.31;129709;1093;114449;-66
2021/07/28 04:45:56;;;;;;;16.35;12.50;;;;;;;21.98;74.12;99369.23;129833;1093;22553;-66
2021/07/28 04:48:27;;;;;;;21.45;13.30;;;;;;;22.04;73.95;99365.14;129807;1092;22570;-66
2021/07/28 04:50:56;;;;;;;17.93;13.35;;;;;;;22.09;73.72;99362.15;129712;1092;114145;-66
2021/07/28 04:53:29;;;;;;;20.65;13.55;;;;;;;22.16;73.42;99364.39;129824;1092;23360;-66
2021/07/28 04:55:58;;;;;;;16.73;12.38;;;;;;;22.21;73.12;99369.75;129683;1093;114101;-66
2021/07/28 04:58:27;;;;;;;20.28;12.45;;;;;;;22.28;73.07;99380.30;129796;1092;22520;-66
2021/07/28 05:00:56;;;;;;;20.95;12.58;;;;;;;22.34;73.17;99373.41;129816;1092;22582;-66
2021/07/28 05:03:25;;;;;;;20.95;12.85;;;;;;;22.39;73.76;99371.21;129721;1093;114230;-66
2021/07/28 05:05:54;;;;;;;19.60;12.38;;;;;;;22.44;73.88;99373.79;129815;1092;22554;-66
2021/07/28 05:08:23;;;;;;;18.75;12.20;;;;;;;22.52;74.16;99372.07;129719;1093;114272;-66
2021/07/28 05:10:52;;;;;;;20.55;13.63;;;;;;;22.58;74.09;99373.50;129816;1092;22625;-66
2021/07/28 05:13:21;;;;;;;24.27;16.13;;;;;;;22.64;74.27;99371.33;129736;1092;114228;-68
2021/07/28 05:15:54;;;;;;;25.13;15.00;;;;;;;22.71;74.44;99372.39;129784;1092;23209;-66
2021/07/28 05:18:23;;;;;;;25.90;14.10;;;;;;;22.82;74.44;99370.02;129815;1093;22552;-66
2021/07/28 05:20:52;;;;;;;23.93;12.88;;;;;;;22.93;74.24;99368.45;129648;1093;114182;-66
2021/07/28 05:23:21;;;;;;;26.85;14.10;;;;;;;23.05;73.74;99370.44;129817;1093;22720;-66
2021/07/28 05:25:50;;;;;;;22.63;12.43;;;;;;;23.17;73.20;99370.45;129726;1093;114963;-68
2021/07/28 05:28:19;;;;;;;18.15;12.23;;;;;;;23.30;73.09;99357.38;129789;1092;22582;-66
2021/07/28 05:30:48;;;;;;;21.40;11.68;;;;;;;23.49;72.66;99358.44;129821;1092;22569;-66
2021/07/28 05:33:16;;;;;;;20.15;11.25;;;;;;;23.80;72.05;99354.28;129715;1092;115094;-66
2021/07/28 05:35:48;;;;;;;19.60;10.05;;;;;;;24.16;71.15;99345.83;129784;1093;22599;-66
2021/07/28 05:38:17;;;;;;;20.90;11.05;;;;;;;24.61;69.43;99339.19;129687;1093;114109;-67
2021/07/28 05:40:46;;;;;;;19.28;9.88;;;;;;;25.04;68.02;99341.17;129792;1093;22616;-64
2021/07/28 05:43:14;;;;;;;27.60;11.30;;;;;;;25.41;66.55;99333.34;129694;1093;114483;-63
2021/07/28 05:45:43;;;;;;;12.90;9.80;;;;;;;25.77;65.08;99323.87;129849;1092;22609;-64
2021/07/28 05:48:12;;;;;;;17.35;8.18;;;;;;;26.17;63.52;99329.13;129810;1093;22564;-64
2021/07/28 05:50:43;;;;;;;17.58;7.50;;;;;;;26.60;61.57;99324.44;129696;1093;115114;-64
2021/07/28 05:53:12;;;;;;;12.95;8.05;;;;;;;27.02;60.21;99325.27;129809;1093;23727;-64
2021/07/28 05:55:41;;;;;;;15.50;7.43;;;;;;;27.45;58.67;99332.38;129633;1093;114603;-63
2021/07/28 05:58:10;;;;;;;19.63;8.80;;;;;;;27.82;57.90;99330.98;129645;1092;23317;-63
2021/07/28 06:00:39;;;;;;;14.25;7.70;;;;;;;28.12;56.66;99326.21;129800;1092;22554;-63
2021/07/28 06:03:08;;;;;;;10.35;6.35;;;;;;;28.39;55.78;99319.38;129666;1092;114509;-64
2021/07/28 06:05:38;;;;;;;15.58;7.38;;;;;;;28.66;55.23;99317.28;129813;1092;22552;-64
2021/07/28 06:08:07;;;;;;;16.58;7.75;;;;;;;28.87;54.93;99311.10;129694;1092;114617;-64
2021/07/28 06:10:36;;;;;;;13.38;7.25;;;;;;;29.00;54.39;99318.04;129795;1093;22578;-64
2021/07/28 06:13:04;;;;;;;15.23;6.85;;;;;;;29.02;53.75;99310.05;129801;1093;22580;-64
2021/07/28 06:15:33;;;;;;;13.78;7.05;;;;;;;28.98;53.98;99308.42;129689;1092;113847;-63
2021/07/28 06:18:02;;;;;;;14.43;6.67;;;;;;;28.87;53.27;99313.91;129765;1092;22593;-64
2021/07/28 06:20:31;;;;;;;10.80;7.30;;;;;;;28.75;53.44;99309.36;129663;1093;114079;-64
2021/07/28 06:23:03;;;;;;;13.80;6.63;;;;;;;28.63;53.33;99322.84;129781;1093;22592;-63
2021/07/28 06:25:31;;;;;;;15.18;7.75;;;;;;;28.48;53.28;99314.27;129681;1093;114651;-63
2021/07/28 06:28:00;;;;;;;14.53;7.08;;;;;;;28.35;53.61;99317.72;129824;1092;22521;-62
2021/07/28 06:30:29;;;;;;;14.68;7.10;;;;;;;28.21;53.92;99318.34;129784;1093;23400;-63
2021/07/28 06:32:58;;;;;;;14.08;7.48;;;;;;;28.08;54.61;99316.94;129687;1093;115123;-63
2021/07/28 06:35:27;;;;;;;10.93;7.63;;;;;;;27.95;55.13;99312.77;129798;1093;23413;-62
2021/07/28 06:37:56;;;;;;;12.60;8.13;;;;;;;27.80;55.50;99306.97;129699;1093;114219;-62
2021/07/28 06:40:25;;;;;;;12.48;7.03;;;;;;;27.68;55.45;99312.80;127369;1092;22779;-62
2021/07/28 06:42:54;;;;;;;10.70;7.48;;;;;;;27.57;56.45;99313.80;129857;1093;22533;-62
2021/07/28 06:45:23;;;;;;;16.90;8.38;;;;;;;27.47;56.49;99309.63;129727;1092;114015;-62
2021/07/28 06:47:52;;;;;;;12.53;7.63;;;;;;;27.40;56.95;99312.33;129805;1092;22573;-62
2021/07/28 06:50:21;;;;;;;15.38;7.78;;;;;;;27.35;56.62;99313.45;129718;1093;114654;-62
2021/07/28 06:52:50;;;;;;;9.90;7.38;;;;;;;27.32;57.19;99321.77;129769;1092;22525;-62
2021/07/28 06:55:19;;;;;;;13.45;8.33;;;;;;;27.29;57.51;99316.92;129688;1092;115310;-62
2021/07/28 06:57:48;;;;;;;14.70;7.28;;;;;;;27.26;56.97;99329.69;129816;1092;22583;-62
2021/07/28 07:00:17;;;;;;;12.00;8.17;;;;;;;27.27;58.08;99330.50;129794;1092;22671;-62
2021/07/28 07:02:46;;;;;;;13.88;8.13;;;;;;;27.25;57.78;99322.48;129712;1093;113977;-62
2021/07/28 07:05:15;;;;;;;16.73;9.03;;;;;;;27.21;57.46;99323.59;129841;1093;22564;-62
2021/07/28 07:07:47;;;;;;;12.35;8.28;;;;;;;27.17;58.14;99326.31;129701;1093;114121;-62
2021/07/28 07:10:17;;;;;;;14.25;8.75;;;;;;;27.13;57.41;99333.02;129810;1093;22570;-62
2021/07/28 07:12:46;;;;;;;13.70;9.30;;;;;;;27.07;58.06;99338.14;129748;1093;22573;-62
2021/07/28 07:15:15;;;;;;;12.88;8.78;;;;;;;27.06;59.18;99331.73;129706;1093;114350;-62
2021/07/28 07:17:43;;;;;;;17.20;8.93;;;;;;;27.06;59.19;99342.92;129816;1093;23101;-62
2021/07/28 07:20:13;;;;;;;16.00;8.88;;;;;;;27.07;59.45;99338.95;129706;1092;114186;-62
2021/07/28 07:22:42;;;;;;;17.75;9.45;;;;;;;27.09;59.42;99342.19;129817;1093;22564;-62
2021/07/28 07:25:11;;;;;;;13.73;9.48;;;;;;;27.10;59.92;99342.99;129802;1092;22560;-62
2021/07/28 07:27:42;;;;;;;11.43;8.18;;;;;;;27.13;59.52;99349.80;129703;1093;113732;-61
2021/07/28 07:30:10;;;;;;;16.23;9.20;;;;;;;27.14;59.41;99341.05;129822;1093;22572;-62
2021/07/28 07:32:39;;;;;;;16.53;9.93;;;;;;;27.12;59.16;99340.64;129710;1092;113930;-61
2021/07/28 07:35:08;;;;;;;14.80;9.10;;;;;;;27.15;59.62;99345.45;129863;1092;23331;-62
2021/07/28 07:37:39;;;;;;;19.88;9.48;;;;;;;27.16;58.97;99349.06;129752;1093;114315;-62
2021/07/28 07:40:09;;;;;;;16.53;9.13;;;;;;;27.14;59.08;99349.44;129837;1092;22638;-66
2021/07/28 07:42:37;;;;;;;19.15;9.68;;;;;;;27.13;59.27;99350.61;129806;1092;22795;-66
2021/07/28 07:45:07;;;;;;;16.33;10.15;;;;;;;27.15;59.93;99351.05;129714;1092;113962;-66
2021/07/28 07:47:36;;;;;;;15.70;9.18;;;;;;;27.17;60.04;99357.09;129814;1093;22600;-66
2021/07/28 07:50:05;;;;;;;16.03;9.20;;;;;;;27.20;60.20;99356.34;129724;1093;114005;-65
2021/07/28 07:52:34;;;;;;;12.08;8.30;;;;;;;27.24;60.04;99346.04;129823;1091;22591;-66
2021/07/28 07:55:04;;;;;;;18.40;9.75;;;;;;;27.28;59.30;99341.29;129807;1093;22537;-66
2021/07/28 07:57:33;;;;;;;13.43;9.83;;;;;;;27.31;59.57;99348.13;129664;1092;113942;-66
2021/07/28 08:00:02;;;;;;;17.18;9.58;;;;;;;27.33;60.06;99346.58;129733;1092;22619;-66
2021/07/28 08:02:33;;;;;;;21.15;9.48;;;;;;;27.38;60.42;99349.08;129666;1092;113952;-66
2021/07/28 08:05:04;;;;;;;17.08;9.93;;;;;;;27.43;60.26;99348.74;129777;1093;22554;-66
2021/07/28 08:07:33;;;;;;;18.58;10.03;;;;;;;27.48;59.83;99349.61;129686;1093;114389;-66
2021/07/28 08:10:03;;;;;;;13.58;10.08;;;;;;;27.52;59.94;99351.30;129800;1092;22564;-66
2021/07/28 08:12:32;;;;;;;20.53;10.17;;;;;;;27.57;60.40;99344.58;129827;1093;22522;-66
2021/07/28 08:15:21;;;;;;;15.00;9.00;;;;;;;27.60;59.33;99352.23;129660;1093;114137;-66
2021/07/28 08:17:50;;;;;;;12.70;10.13;;;;;;;27.60;60.72;99355.84;129766;1093;22545;-66
2021/07/28 08:20:19;;;;;;;15.45;10.50;;;;;;;27.68;59.74;99357.59;129693;1092;115232;-66
2021/07/28 08:22:47;;;;;;;14.33;9.50;;;;;;;27.72;59.87;99355.63;129752;1092;22585;-66
2021/07/28 08:25:17;;;;;;;21.08;9.58;;;;;;;27.76;59.88;99348.09;129782;1092;23810;-66
2021/07/28 08:27:46;;;;;;;16.58;10.43;;;;;;;27.79;59.95;99344.55;129747;1093;114227;-66
2021/07/28 08:30:16;;;;;;;17.23;10.48;;;;;;;27.84;59.30;99345.42;129775;1092;23304;-66
2021/07/28 08:32:44;;;;;;;16.65;10.35;;;;;;;27.85;59.65;99338.61;129670;1092;114092;-66
2021/07/28 08:35:14;;;;;;;20.40;11.28;;;;;;;27.87;59.27;99341.84;129768;1093;22554;-66
2021/07/28 08:37:43;;;;;;;19.45;10.60;;;;;;;27.89;59.26;99345.88;129675;1093;115085;-66
2021/07/28 08:40:16;;;;;;;13.98;9.85;;;;;;;27.92;59.48;99342.33;127646;1092;22790;-65
2021/07/28 08:42:46;;;;;;;15.23;10.75;;;;;;;27.96;59.25;99342.39;129848;1093;22554;-66
2021/07/28 08:45:18;;;;;;;14.68;10.35;;;;;;;27.98;59.57;99340.83;129643;1092;114226;-67
2021/07/28 08:47:47;;;;;;;19.73;11.18;;;;;;;28.02;59.74;99340.86;129753;1093;22537;-66
2021/07/28 08:50:16;;;;;;;15.50;9.85;;;;;;;28.04;59.77;99333.70;129663;1093;114441;-65
2021/07/28 08:52:45;;;;;;;13.03;10.05;;;;;;;28.09;59.49;99332.56;129776;1092;23153;-66
2021/07/28 08:55:15;;;;;;;15.88;10.75;;;;;;;28.12;59.05;99338.22;129781;1093;22566;-66
2021/07/28 08:59:00;;;;;;;14.68;9.88;;;;;;;28.15;58.63;99336.63;125550;1090;23299;-66
2021/07/28 09:01:29;;;;;;;16.68;9.18;;;;;;;28.16;58.61;99332.64;125188;1090;114268;-66
2021/07/28 09:03:59;;;;;;;18.25;9.93;;;;;;;28.15;58.45;99339.43;125229;1093;25397;-66
2021/07/28 09:06:28;;;;;;;14.50;9.58;;;;;;;28.13;57.39;99337.01;130051;1093;24286;-67
2021/07/28 09:09:00;;;;;;;17.35;9.05;;;;;;;28.11;58.64;99336.61;130006;1093;113932;-65
2021/07/28 09:11:29;;;;;;;12.80;9.48;;;;;;;28.14;58.69;99337.81;130043;1093;22662;-67
2021/07/28 09:14:15;;;;;;;16.73;9.90;;;;;;;28.16;58.59;99327.84;129933;1093;113756;-67
2021/07/28 09:16:44;;;;;;;14.83;9.28;;;;;;;28.20;58.69;99321.52;129996;1092;23002;-67
2021/07/28 09:19:13;;;;;;;11.58;9.18;;;;;;;28.23;58.51;99331.98;130058;1093;22534;-68
2021/07/28 09:21:42;;;;;;;13.98;9.83;;;;;;;28.26;58.10;99322.81;129918;1093;113630;-67
2021/07/28 09:24:12;;;;;;;16.50;8.95;;;;;;;28.28;57.49;99315.62;130084;1092;22518;-68
2021/07/28 09:26:44;;;;;;;13.40;8.30;;;;;;;28.31;56.93;99317.66;129916;1092;114026;-67
2021/07/28 09:29:14;;;;;;;14.98;8.35;;;;;;;28.37;56.94;99329.35;130016;1093;22552;-68
2021/07/28 09:31:46;;;;;;;22.88;9.88;;;;;;;28.41;56.88;99317.00;129714;1092;114033;-67
2021/07/28 09:34:21;;;;;;;21.00;9.18;;;;;;;28.47;56.55;99326.67;130068;1092;23120;-67
2021/07/28 09:36:50;;;;;;;27.20;8.85;;;;;;;28.53;56.43;99323.53;130009;1093;22553;-65
2021/07/28 09:39:22;;;;;;;12.73;8.20;;;;;;;28.59;55.59;99319.99;129627;1093;113602;-61
2021/07/28 09:41:55;;;;;;;11.33;8.63;;;;;;;28.64;55.95;99305.64;130032;1093;23174;-60
2021/07/28 09:44:25;;;;;;;14.50;9.33;;;;;;;28.70;56.12;99317.33;129705;1093;113387;-61
2021/07/28 09:47:04;;;;;;;29.25;11.18;;;;;;;28.72;56.14;99307.31;130070;1092;22542;-61
2021/07/28 09:49:33;;;;;;;14.65;8.85;;;;;;;28.75;55.28;99300.14;129698;1093;114048;-63
2021/07/28 09:52:21;;;;;;;14.28;9.10;;;;;;;28.75;55.60;99303.75;129972;1093;22587;-64
2021/07/28 09:54:51;;;;;;;17.48;9.43;;;;;;;28.72;56.38;99301.70;130066;1092;23185;-64
2021/07/28 09:57:21;;;;;;;17.65;9.60;;;;;;;28.72;56.31;99292.48;129903;1092;113756;-63
2021/07/28 10:00:05;;;;;;;14.88;9.15;;;;;;;28.74;55.80;99299.33;130087;1092;22647;-63
2021/07/28 10:02:35;;;;;;;13.95;7.75;;;;;;;28.75;53.88;99292.53;129858;1093;113756;-64
2021/07/28 10:05:06;;;;;;;13.55;7.98;;;;;;;28.77;54.01;99292.95;130108;1093;22930;-63
2021/07/28 10:07:36;;;;;;;15.13;7.53;;;;;;;28.80;53.63;99297.02;129941;1092;114301;-65
2021/07/28 10:10:11;;;;;;;15.68;7.90;;;;;;;28.80;53.83;99291.41;129973;1092;22633;-65
2021/07/28 10:12:40;;;;;;;16.18;7.30;;;;;;;28.79;53.30;99275.78;129806;1093;23064;-64
2021/07/28 10:15:10;;;;;;;15.98;8.15;;;;;;;28.81;52.88;99274.20;129692;1092;114617;-65
2021/07/28 10:17:40;;;;;;;21.28;9.35;;;;;;;28.83;53.14;99271.83;129787;1092;23399;-65
2021/07/28 10:20:10;;;;;;;12.30;8.43;;;;;;;28.84;51.61;99269.83;129742;1092;114566;-64
2021/07/28 10:22:42;;;;;;;11.50;7.15;;;;;;;28.87;52.34;99277.45;129957;1093;22644;-65
2021/07/28 10:25:13;;;;;;;11.45;7.80;;;;;;;28.89;52.56;99269.45;129974;1093;22680;-65
2021/07/28 10:27:43;;;;;;;15.60;7.45;;;;;;;28.91;52.58;99272.68;129715;1092;113880;-64
2021/07/28 10:30:15;;;;;;;12.45;8.23;;;;;;;28.94;52.30;99285.94;129793;1092;22560;-64
2021/07/28 10:32:45;;;;;;;23.43;7.98;;;;;;;28.95;52.36;99283.94;129855;1092;113507;-65
2021/07/28 10:35:17;;;;;;;9.53;6.33;;;;;;;28.96;51.41;99280.75;130030;1093;22506;-65
2021/07/28 10:37:46;;;;;;;12.43;8.05;;;;;;;29.00;51.03;99278.77;129881;1092;113791;-65
2021/07/28 10:40:24;;;;;;;14.83;7.70;;;;;;;29.03;51.20;99274.38;129745;1092;22561;-67
2021/07/28 10:43:02;;;;;;;25.55;8.50;;;;;;;29.06;50.74;99276.42;129980;1093;22535;-69
2021/07/28 10:45:53;;;;;;;30.15;9.28;;;;;;;29.10;51.75;99271.66;129848;1093;113788;-67
2021/07/28 10:48:51;;;;;;;19.15;7.48;;;;;;;29.12;52.09;99272.88;129993;1093;22625;-67
2021/07/28 10:51:50;;;;;;;11.73;7.50;;;;;;;29.18;52.00;99274.12;129242;1096;114219;-68
2021/07/28 10:54:49;;;;;;;11.73;6.78;;;;;;;29.23;52.16;99272.16;129325;1095;23209;-67
2021/07/28 10:57:34;;;;;;;17.45;8.53;;;;;;;29.27;51.94;99258.97;129290;1096;114647;-67
2021/07/28 11:00:04;;;;;;;12.45;7.23;;;;;;;29.30;52.17;99258.16;129367;1095;22569;-67
2021/07/28 11:02:53;;;;;;;18.40;7.70;;;;;;;29.31;51.57;99259.78;129275;1096;113838;-67
2021/07/28 11:05:25;;;;;;;18.05;7.90;;;;;;;29.31;51.54;99262.58;129356;1096;22649;-68
2021/07/28 11:08:08;;;;;;;16.73;7.70;;;;;;;29.31;51.60;99260.58;129267;1096;114116;-67
2021/07/28 11:10:49;;;;;;;10.28;6.88;;;;;;;29.35;51.59;99252.19;129334;1095;23320;-67
2021/07/28 11:13:18;;;;;;;15.18;7.08;;;;;;;29.38;52.17;99249.45;129325;1096;22989;-67
2021/07/28 11:16:07;;;;;;;17.70;7.45;;;;;;;29.42;51.80;99241.06;129254;1095;113819;-68
2021/07/28 11:18:46;;;;;;;11.93;7.50;;;;;;;29.44;51.24;99244.25;129353;1096;22543;-67
2021/07/28 11:21:29;;;;;;;12.38;7.30;;;;;;;29.45;51.36;99245.87;129261;1096;113985;-67
2021/07/28 11:24:03;;;;;;;10.75;6.55;;;;;;;29.49;50.93;99246.70;129357;1096;23394;-67
2021/07/28 11:26:41;;;;;;;14.85;7.55;;;;;;;29.52;50.75;99241.13;129290;1095;113851;-67
2021/07/28 11:29:15;;;;;;;17.58;7.20;;;;;;;29.57;49.65;99247.57;129866;1092;23490;-67